Latest Weather Observations for Redesdale

IDV60801

Issued at 7:31 pm EST Friday 28 August 2015 (issued every 30 minutes, with the page automatically refreshed every 10 minutes)

About weather observations | Map of weather stations | Latest weather observations for VIC | Other Formats
Station Details ID: 088051 Name: REDESDALE Lat: -37.02 Lon: 144.52 Height: 290.0 m
Data from the previous 72 hours. | See also: Recent months at Redesdale
Date/Time
EST
Temp
°C
App
Temp
°C
Dew
Point
Rel
Hum
%
Delta-T
°C
Wind Press
QNH
hPa
Press
MSL
hPa
Rain
since 9 am
mm
Dir
 
Spd
km/h
Gust
km/h
Spd
kts
Gust
kts
28/07:30pm 6.9 1.4 4.0 82 1.3 S 22 28 12 15 - - 0.0
28/07:00pm 7.4 2.3 4.2 80 1.4 SSW 20 30 11 16 - - 0.0
28/06:30pm 7.9 3.1 4.5 79 1.5 S 19 26 10 14 - - 0.0
28/06:00pm 8.4 4.4 5.0 79 1.5 S 15 24 8 13 - - 0.0
28/05:30pm 9.8 5.1 5.2 73 2.1 S 19 24 10 13 - - 0.0
28/05:00pm 10.8 6.1 6.2 73 2.2 S 20 28 11 15 - - 0.0
28/04:30pm 10.8 5.1 4.7 66 2.8 S 24 32 13 17 - - 0.0
28/04:00pm 12.0 8.5 3.3 55 3.9 S 11 17 6 9 - - 0.0
28/03:30pm 13.1 8.9 4.0 54 4.2 SSW 15 24 8 13 - - 0.0
28/03:00pm 12.0 7.8 4.0 58 3.6 S 15 22 8 12 - - 0.0
28/02:30pm 14.0 9.2 4.9 54 4.3 S 19 28 10 15 - - 0.0
28/02:00pm 12.4 6.9 4.1 57 3.8 S 22 33 12 18 - - 0.0
28/01:30pm 12.7 8.0 3.4 53 4.2 S 17 32 9 17 - - 0.0
28/01:00pm 12.7 7.5 3.6 54 4.1 S 20 30 11 16 - - 0.0
28/12:30pm 12.3 6.3 3.5 55 4.0 S 24 35 13 19 - - 0.0
28/12:00pm 12.8 7.4 4.3 56 3.9 S 22 32 12 17 - - 0.0
28/11:30am 11.4 5.6 4.6 63 3.1 S 24 37 13 20 - - 0.0
28/11:00am 11.4 5.1 3.7 59 3.5 S 26 37 14 20 - - 0.0
28/10:30am 11.3 - - - - S 28 39 15 21 - - 0.0
28/10:00am 10.1 - - - - S 24 35 13 19 - - 0.0
28/09:30am 9.4 - - - - S 22 33 12 18 - - 0.0
28/09:00am 10.0 - - - - S 22 32 12 17 - - 0.6
28/08:30am 8.7 - - - - S 20 35 11 19 - - 0.6
28/08:00am 8.1 - - - - SSW 13 20 7 11 - - 0.6
28/07:30am 6.6 - - - - SSW 9 22 5 12 - - 0.6
28/07:00am 4.5 - - - - SSW 7 11 4 6 - - 0.6
28/06:30am 5.0 1.3 2.5 84 1.0 SSW 11 19 6 10 - - 0.6
28/06:00am 5.6 1.6 2.9 83 1.1 SSW 13 17 7 9 - - 0.6
28/05:30am 6.2 1.5 3.4 82 1.2 SSW 17 28 9 15 - - 0.6
28/05:00am 6.8 1.7 4.1 83 1.2 SSW 20 28 11 15 - - 0.6
28/04:30am 6.4 2.7 4.6 88 0.8 SSW 13 19 7 10 - - 0.6
28/04:00am 7.0 2.1 4.0 81 1.3 SSW 19 26 10 14 - - 0.6
28/03:30am 7.5 - - - - SSW 19 24 10 13 - - 0.6
28/03:00am 7.0 3.2 4.0 81 1.3 SSW 13 20 7 11 - - 0.6
28/02:30am 7.8 1.6 4.2 78 1.6 S 26 39 14 21 - - 0.6
28/02:00am 8.4 2.7 5.0 79 1.5 SSW 24 33 13 18 - - 0.6
28/01:30am 8.2 3.3 5.3 82 1.3 SSW 20 28 11 15 - - 0.6
28/01:00am 8.0 3.3 5.3 83 1.2 SSW 19 24 10 13 - - 0.6
28/12:30am 8.8 4.8 6.8 87 0.9 SSW 17 26 9 14 - - 0.6
28/12:00am 9.1 4.6 6.9 86 1.0 S 20 28 11 15 - - 0.6
 
Date/Time
EST
Temp
°C
App
Temp
°C
Dew
Point
Rel
Hum
%
Delta-T
°C
Wind Press
QNH
hPa
Press
MSL
hPa
Rain
since 9 am
mm
Dir
 
Spd
km/h
Gust
km/h
Spd
kts
Gust
kts
27/11:30pm 9.5 5.3 7.3 86 1.1 SSW 19 28 10 15 - - 0.6
27/11:00pm 9.7 5.3 7.3 85 1.2 SSW 20 30 11 16 - - 0.6
27/10:30pm 9.2 6.0 7.0 86 1.0 SSW 13 22 7 12 - - 0.6
27/10:00pm 8.4 6.2 6.0 85 1.1 SW 7 11 4 6 - - 0.6
27/09:30pm 8.6 5.7 6.6 87 0.9 SW 11 17 6 9 - - 0.6
27/09:00pm 8.7 5.5 6.7 87 0.9 SSW 13 19 7 10 - - 0.6
27/08:30pm 9.4 5.8 6.8 84 1.2 SSW 15 20 8 11 - - 0.6
27/08:00pm 9.6 6.0 6.7 82 1.4 SSW 15 22 8 12 - - 0.6
27/07:30pm 9.3 5.7 6.6 83 1.3 SSW 15 20 8 11 - - 0.6
27/07:00pm 8.6 6.5 6.6 87 0.9 SW 7 11 4 6 - - 0.6
27/06:30pm 8.7 5.8 6.7 87 0.9 SW 11 13 6 7 - - 0.6
27/06:00pm 8.8 5.6 6.8 87 0.9 SW 13 22 7 12 - - 0.6
27/05:30pm 9.0 3.6 6.4 84 1.2 S 24 35 13 19 - - 0.2
27/05:00pm 10.7 6.2 6.1 73 2.2 S 19 26 10 14 - - 0.0
27/04:30pm 11.4 9.2 6.3 71 2.4 S 7 11 4 6 - - 0.0
27/04:00pm 11.5 7.4 6.4 71 2.4 SSE 17 24 9 13 - - 0.0
27/03:30pm 12.6 8.9 6.2 65 3.1 SW 15 22 8 12 - - 0.0
27/03:00pm 12.8 9.9 6.6 66 3.0 SSW 11 19 6 10 - - 0.0
27/02:30pm 12.3 8.2 6.4 67 2.8 SSW 17 20 9 11 - - 0.0
27/02:00pm 12.6 8.0 6.6 67 2.9 SSW 20 26 11 14 - - 0.0
27/01:30pm 12.4 8.5 6.9 69 2.7 SSW 17 26 9 14 - - 0.0
27/01:00pm 12.5 8.2 6.8 68 2.8 SSW 19 28 10 15 - - 0.0
27/12:30pm 13.1 9.6 7.3 68 2.9 SSW 15 26 8 14 - - 0.0
27/12:00pm 12.4 9.4 7.5 72 2.4 SSW 13 20 7 11 - - 0.0
27/11:30am 12.1 9.1 7.8 75 2.1 SSW 13 19 7 10 - - 0.0
27/11:00am 11.6 8.6 7.5 76 2.0 SSW 13 20 7 11 - - 0.0
27/10:30am 11.5 8.5 7.8 78 1.8 SSW 13 19 7 10 - - 0.0
27/10:00am 11.1 9.4 8.3 83 1.4 SW 7 9 4 5 - - 0.0
27/09:30am 10.4 - - - - SW 6 11 3 6 - - 0.0
27/09:00am 9.4 - - - - SW 9 13 5 7 - - 0.6
27/08:30am 7.8 - - - - WSW 4 9 2 5 - - 0.6
27/08:00am 6.9 - - - - SW 4 6 2 3 - - 0.6
27/07:30am 6.0 3.7 5.9 99 0.0 SW 7 11 4 6 - - 0.6
27/07:00am 5.6 - - - - SSW 4 6 2 3 - - 0.6
27/06:30am 5.5 3.3 5.4 99 0.0 SSE 6 6 3 3 - - 0.6
27/06:00am 5.4 3.0 5.3 99 0.0 SW 7 9 4 5 - - 0.6
27/05:30am 6.1 - - - - SSW 4 6 2 3 - - 0.6
27/05:00am 6.2 - - - - SSW 6 9 3 5 - - 0.6
27/04:30am 6.8 5.3 6.7 99 0.0 SSW 4 6 2 3 - - 0.6
27/04:00am 6.6 5.8 6.5 99 0.0 CALM 0 0 0 0 - - 0.6
27/03:30am 6.4 4.4 6.3 99 0.0 SSW 6 6 3 3 - - 0.6
27/03:00am 6.1 4.0 6.0 99 0.0 SSW 6 6 3 3 - - 0.6
27/02:30am 6.9 5.0 6.8 99 0.0 S 6 7 3 4 - - 0.6
27/02:00am 7.0 5.5 6.6 97 0.2 S 4 6 2 3 - - 0.6
27/01:30am 8.3 7.8 8.0 98 0.1 CALM 0 0 0 0 - - 0.6
27/01:00am 8.4 7.6 8.1 98 0.1 SSW 2 4 1 2 - - 0.6
27/12:30am 8.4 6.8 8.1 98 0.1 SSW 6 6 3 3 - - 0.6
27/12:00am 8.4 7.2 8.1 98 0.1 S 4 6 2 3 - - 0.6
 
Date/Time
EST
Temp
°C
App
Temp
°C
Dew
Point
Rel
Hum
%
Delta-T
°C
Wind Press
QNH
hPa
Press
MSL
hPa
Rain
since 9 am
mm
Dir
 
Spd
km/h
Gust
km/h
Spd
kts
Gust
kts
26/11:30pm 8.6 6.9 8.3 98 0.1 S 7 9 4 5 - - 0.6
26/11:00pm 9.1 8.0 8.6 97 0.2 ENE 4 6 2 3 - - 0.6
26/10:30pm 9.5 8.1 8.9 96 0.3 ENE 6 6 3 3 - - 0.6
26/10:00pm 9.7 9.5 8.9 95 0.4 CALM 0 0 0 0 - - 0.6
26/09:30pm 9.8 9.6 9.0 95 0.4 CALM 0 2 0 1 - - 0.6
26/09:00pm 9.9 9.6 8.8 93 0.5 CALM 0 0 0 0 - - 0.6
26/08:30pm 10.3 10.1 8.9 91 0.7 CALM 0 2 0 1 - - 0.6
26/08:00pm 10.5 9.9 8.8 89 0.9 N 2 4 1 2 - - 0.6
26/07:30pm 10.8 10.1 8.7 87 1.1 N 2 4 1 2 - - 0.2
26/07:00pm 11.1 9.5 8.1 82 1.5 N 6 9 3 5 - - 0.2
26/06:30pm 12.2 11.4 6.7 69 2.7 CALM 0 0 0 0 - - 0.0
26/06:00pm 12.5 11.7 6.5 67 2.9 CALM 0 4 0 2 - - 0.0
26/05:30pm 12.8 11.7 6.8 67 2.9 ENE 2 4 1 2 - - 0.0
26/05:00pm 13.1 10.6 6.5 64 3.2 NE 9 15 5 8 - - 0.0
26/04:30pm 13.2 11.1 6.5 64 3.3 ENE 7 9 4 5 - - 0.0
26/04:00pm 14.0 11.9 5.6 57 4.0 NE 6 11 3 6 - - 0.0
26/03:30pm 14.2 12.0 5.3 55 4.3 NNE 6 11 3 6 - - 0.0
26/03:00pm 14.5 12.0 4.5 51 4.7 N 7 13 4 7 - - 0.0
26/02:30pm 15.2 13.2 4.6 49 5.0 NNE 4 9 2 5 - - 0.0
26/02:00pm 14.7 11.9 5.0 52 4.6 NNE 9 15 5 8 - - 0.0
26/01:30pm 15.3 12.6 5.5 52 4.7 N 9 15 5 8 - - 0.0
26/01:00pm 15.7 12.9 5.0 49 5.1 N 9 17 5 9 - - 0.0
26/12:30pm 14.7 11.3 4.1 49 5.0 N 11 17 6 9 - - 0.0
26/12:00pm 14.5 12.1 4.2 50 4.8 NE 6 11 3 6 - - 0.0
26/11:30am 14.6 12.3 4.9 52 4.6 NE 6 11 3 6 - - 0.0
26/11:00am 13.8 11.8 4.4 53 4.4 ENE 4 13 2 7 - - 0.0
26/10:30am 12.4 10.0 4.4 58 3.7 SE 6 7 3 4 - - 0.0
26/10:00am 11.6 9.7 4.8 63 3.1 SSW 4 6 2 3 - - 0.0
26/09:30am 10.8 9.1 5.8 71 2.4 SW 4 6 2 3 - - 0.0
26/09:00am 10.5 8.8 6.1 74 2.1 SSW 4 4 2 2 - - 0.0
26/08:30am 9.8 7.8 6.2 78 1.7 SW 6 7 3 4 - - 0.0
26/08:00am 8.7 6.7 6.2 84 1.2 SSW 6 7 3 4 - - 0.0
26/07:30am 8.3 6.0 5.8 84 1.2 SSW 7 7 4 4 - - 0.0
26/07:00am 8.4 6.2 5.2 80 1.5 SSW 6 7 3 4 - - 0.0
26/06:30am 8.3 6.1 5.1 80 1.5 SSW 6 7 3 4 - - 0.0
26/06:00am 8.3 5.9 5.2 81 1.4 SSW 7 9 4 5 - - 0.0
26/05:30am 8.3 5.9 5.4 82 1.3 SSW 7 9 4 5 - - 0.0
26/05:00am 8.2 6.0 5.3 82 1.3 SSW 6 7 3 4 - - 0.0
26/04:30am 8.2 5.8 5.3 82 1.3 S 7 9 4 5 - - 0.0
26/04:00am 8.2 5.1 5.5 83 1.2 S 11 15 6 8 - - 0.0
26/03:30am 8.1 4.6 5.6 84 1.1 S 13 15 7 8 - - 0.0
26/03:00am 8.2 5.5 5.7 84 1.1 S 9 13 5 7 - - 0.0
26/02:30am 8.2 5.5 5.7 84 1.1 S 9 13 5 7 - - 0.0
26/02:00am 8.2 5.9 5.5 83 1.2 SSW 7 9 4 5 - - 0.0
26/01:30am 8.5 5.7 5.3 80 1.5 S 9 13 5 7 - - 0.0
26/01:00am 8.8 6.0 5.2 78 1.6 S 9 15 5 8 - - 0.0
26/12:30am 9.1 5.5 5.1 76 1.8 S 13 17 7 9 - - 0.0
26/12:00am 8.9 5.7 5.1 77 1.7 S 11 17 6 9 - - 0.0
 
Date/Time
EST
Temp
°C
App
Temp
°C
Dew
Point
Rel
Hum
%
Delta-T
°C
Wind Press
QNH
hPa
Press
MSL
hPa
Rain
since 9 am
mm
Dir
 
Spd
km/h
Gust
km/h
Spd
kts
Gust
kts
25/11:30pm 9.2 5.6 5.0 75 1.9 S 13 17 7 9 - - 0.0
25/11:00pm 9.3 5.3 4.7 73 2.1 S 15 19 8 10 - - 0.0
25/10:30pm 9.4 4.6 4.8 73 2.1 SSE 19 24 10 13 - - 0.0
25/10:00pm 9.5 4.1 4.7 72 2.2 SSE 22 28 12 15 - - 0.0
25/09:30pm 9.6 4.2 4.6 71 2.3 SSE 22 32 12 17 - - 0.0
25/09:00pm 9.4 4.1 4.8 73 2.1 SSE 22 30 12 16 - - 0.0
25/08:30pm 9.5 4.1 4.7 72 2.2 S 22 30 12 16 - - 0.0
25/08:00pm 9.5 4.5 4.5 71 2.3 SSE 20 30 11 16 - - 0.0

Other Formats:

Comma delimited format used in spreadsheet applications
http://www.bom.gov.au/fwo/IDV60801/IDV60801.94859.axf

JavaScript Object Notation format (JSON) in row-major order
http://www.bom.gov.au/fwo/IDV60801/IDV60801.94859.json